createdAt,value
2019-04-02T00:02:23.168Z,7.53
2019-04-02T00:04:51.826Z,7.33
2019-04-02T00:07:20.505Z,7.87
2019-04-02T00:09:49.177Z,7.10
2019-04-02T00:12:17.844Z,7.50
2019-04-02T00:14:46.810Z,7.83
2019-04-02T00:17:15.560Z,7.00
2019-04-02T00:19:44.231Z,7.33
2019-04-02T00:22:12.914Z,7.40
2019-04-02T00:24:41.612Z,7.43
2019-04-02T00:27:10.302Z,7.00
2019-04-02T00:29:38.987Z,6.97
2019-04-02T00:32:07.693Z,7.07
2019-04-02T00:34:36.686Z,7.20
2019-04-02T00:37:05.934Z,6.73
2019-04-02T00:39:34.777Z,7.07
2019-04-02T00:42:03.470Z,7.10
2019-04-02T00:44:32.115Z,7.13
2019-04-02T00:47:00.784Z,6.97
2019-04-02T00:49:29.463Z,7.17
2019-04-02T00:51:58.141Z,7.10
2019-04-02T00:54:26.803Z,7.40
2019-04-02T00:56:56.314Z,6.53
2019-04-02T00:59:26.041Z,6.77
2019-04-02T01:01:54.715Z,6.80
2019-04-02T01:04:23.375Z,6.67
2019-04-02T01:06:52.053Z,6.97
2019-04-02T01:09:20.724Z,7.17
2019-04-02T01:11:50.133Z,6.70
2019-04-02T01:14:19.329Z,6.97
2019-04-02T01:16:47.988Z,7.03
2019-04-02T01:19:16.668Z,6.97
2019-04-02T01:21:45.345Z,6.30
2019-04-02T01:24:14.013Z,6.93
2019-04-02T01:26:42.676Z,6.33
2019-04-02T01:29:18.719Z,7.00
2019-04-02T01:31:47.849Z,6.30
2019-04-02T01:34:16.515Z,6.93
2019-04-02T01:36:45.192Z,7.13
2019-04-02T01:39:13.959Z,6.53
2019-04-02T01:41:49.604Z,6.67
2019-04-02T01:44:19.424Z,6.77
2019-04-02T01:46:48.099Z,6.60
2019-04-02T01:49:16.766Z,6.60
2019-04-02T01:51:45.432Z,7.00
2019-04-02T01:54:14.099Z,7.03
2019-04-02T01:56:42.766Z,6.60
2019-04-02T01:59:11.454Z,7.00
2019-04-02T02:01:40.109Z,7.10
2019-04-02T02:04:08.773Z,7.00
2019-04-02T02:06:37.437Z,7.43
2019-04-02T02:09:08.605Z,6.87
2019-04-02T02:11:37.290Z,7.47
2019-04-02T02:14:06.374Z,7.40
2019-04-02T02:16:35.114Z,7.20
2019-04-02T02:19:03.787Z,7.90
2019-04-02T02:21:32.506Z,8.17
2019-04-02T02:24:01.200Z,8.27
2019-04-02T02:26:29.860Z,8.07
2019-04-02T02:28:58.533Z,8.20
2019-04-02T02:31:27.361Z,8.03
2019-04-02T02:33:56.045Z,7.23
2019-04-02T02:36:24.725Z,7.07
2019-04-02T02:38:53.440Z,7.13
2019-04-02T02:41:56.978Z,7.50
2019-04-02T02:44:25.730Z,6.90
2019-04-02T02:46:54.393Z,7.00
2019-04-02T02:49:23.112Z,6.80
2019-04-02T02:51:51.799Z,7.30
2019-04-02T02:54:21.413Z,7.20
2019-04-02T02:56:50.412Z,7.27
2019-04-02T02:59:19.488Z,7.13
2019-04-02T03:01:48.367Z,6.57
2019-04-02T03:04:17.262Z,7.40
2019-04-02T03:06:45.954Z,7.17
2019-04-02T03:09:14.626Z,7.10
2019-04-02T03:11:43.555Z,6.87
2019-04-02T03:14:12.237Z,7.47
2019-04-02T03:16:41.919Z,7.97
2019-04-02T03:19:13.276Z,7.83
2019-04-02T03:21:41.180Z,7.97
2019-04-02T03:24:09.880Z,7.43
2019-04-02T03:26:38.586Z,7.43
2019-04-02T03:29:07.254Z,8.00
2019-04-02T03:31:36.799Z,7.50
2019-04-02T03:34:10.708Z,7.77
2019-04-02T03:36:36.200Z,7.53
2019-04-02T03:39:08.490Z,7.57
2019-04-02T03:41:39.990Z,8.27
2019-04-02T03:44:07.756Z,8.53
2019-04-02T03:46:36.417Z,8.50
2019-04-02T03:49:05.086Z,7.77
2019-04-02T03:51:33.769Z,8.37
2019-04-02T03:54:02.456Z,7.33
2019-04-02T03:56:31.129Z,7.43
2019-04-02T03:58:59.816Z,7.23
2019-04-02T04:01:28.570Z,7.30
2019-04-02T04:03:57.260Z,8.20
2019-04-02T04:06:25.933Z,8.17
2019-04-02T04:08:54.612Z,7.33
2019-04-02T04:11:23.282Z,8.50
2019-04-02T04:13:51.987Z,7.80
2019-04-02T04:16:20.652Z,9.00
2019-04-02T04:18:49.914Z,7.23
2019-04-02T04:21:21.286Z,8.07
2019-04-02T04:23:49.294Z,9.17
2019-04-02T04:26:21.758Z,8.43
2019-04-02T04:28:48.349Z,8.73
2019-04-02T04:31:17.028Z,7.80
2019-04-02T04:33:45.706Z,8.23
2019-04-02T04:36:14.419Z,18.10
2019-04-02T04:38:43.485Z,8.87
2019-04-02T04:41:12.226Z,8.57
2019-04-02T04:43:40.904Z,8.23
2019-04-02T04:46:09.622Z,8.20
2019-04-02T04:48:38.279Z,8.33
2019-04-02T04:51:06.965Z,8.50
2019-04-02T04:53:35.641Z,8.63
2019-04-02T04:56:04.430Z,8.40
2019-04-02T04:58:33.108Z,8.67
2019-04-02T05:01:01.797Z,8.77
2019-04-02T05:04:06.822Z,8.10
2019-04-02T05:06:35.519Z,8.13
2019-04-02T05:09:05.983Z,7.93
2019-04-02T05:11:34.663Z,7.97
2019-04-02T05:14:03.329Z,8.43
2019-04-02T05:16:32.004Z,8.07
2019-04-02T05:19:00.674Z,8.90
2019-04-02T05:21:29.355Z,8.10
2019-04-02T05:23:58.029Z,8.67
2019-04-02T05:26:26.741Z,8.57
2019-04-02T05:28:55.530Z,9.17
2019-04-02T05:31:24.216Z,9.57
2019-04-02T05:33:52.939Z,9.70
2019-04-02T05:36:23.166Z,9.23
2019-04-02T05:38:51.994Z,9.50
2019-04-02T05:41:20.677Z,9.10
2019-04-02T05:43:49.654Z,9.17
2019-04-02T05:46:18.457Z,9.03
2019-04-02T05:48:47.096Z,8.93
2019-04-02T05:51:15.777Z,8.27
2019-04-02T05:53:45.852Z,8.67
2019-04-02T05:56:14.561Z,8.43
2019-04-02T05:58:43.253Z,8.50
2019-04-02T06:01:12.081Z,9.00
2019-04-02T06:03:41.284Z,8.00
2019-04-02T06:06:11.096Z,8.20
2019-04-02T06:08:39.771Z,8.80
2019-04-02T06:11:08.546Z,8.67
2019-04-02T06:13:37.226Z,8.73
2019-04-02T06:16:06.222Z,9.00
2019-04-02T06:18:34.918Z,10.30
2019-04-02T06:21:03.673Z,9.27
2019-04-02T06:23:32.396Z,9.97
2019-04-02T06:26:01.208Z,9.23
2019-04-02T06:28:29.907Z,8.33
2019-04-02T06:30:58.676Z,9.30
2019-04-02T06:33:27.342Z,9.23
2019-04-02T06:35:56.041Z,8.80
2019-04-02T06:38:24.803Z,8.67
2019-04-02T06:40:53.478Z,9.77
2019-04-02T06:43:22.156Z,9.80
2019-04-02T06:45:50.888Z,9.37
2019-04-02T06:48:25.145Z,9.03
2019-04-02T06:50:55.394Z,10.43
2019-04-02T06:53:24.119Z,9.47
2019-04-02T06:55:52.884Z,9.63
2019-04-02T06:58:21.580Z,10.67
2019-04-02T07:00:50.285Z,13.77
2019-04-02T07:03:18.977Z,9.43
2019-04-02T07:05:47.723Z,8.83
2019-04-02T07:08:16.556Z,9.80
2019-04-02T07:10:48.108Z,10.43
2019-04-02T07:13:16.852Z,9.37
2019-04-02T07:15:45.877Z,9.00
2019-04-02T07:18:14.706Z,10.70
2019-04-02T07:20:43.458Z,11.03
2019-04-02T07:23:12.201Z,14.37
2019-04-02T07:25:42.409Z,10.90
2019-04-02T07:28:12.315Z,11.83
2019-04-02T07:30:41.686Z,9.77
2019-04-02T07:33:10.530Z,11.57
2019-04-02T07:35:42.151Z,11.40
2019-04-02T07:38:09.922Z,9.83
2019-04-02T07:40:39.015Z,9.33
2019-04-02T07:43:08.967Z,9.37
2019-04-02T07:45:38.012Z,10.10
2019-04-02T07:48:09.569Z,8.83
2019-04-02T07:50:39.608Z,9.60
2019-04-02T07:53:08.367Z,9.17
2019-04-02T07:55:37.081Z,8.73
2019-04-02T07:58:07.252Z,13.83
2019-04-02T08:00:36.364Z,13.07
2019-04-02T08:03:05.094Z,9.03
2019-04-02T08:05:33.908Z,9.17
2019-04-02T08:08:04.077Z,9.23
2019-04-02T08:10:33.206Z,13.10
2019-04-02T08:13:01.972Z,12.82
2019-04-02T08:15:30.693Z,10.70
2019-04-02T08:17:59.391Z,10.78
2019-04-02T08:20:28.210Z,11.12
2019-04-02T08:22:57.416Z,9.30
2019-04-02T08:25:27.506Z,12.37
2019-04-02T08:27:56.668Z,11.03
2019-04-02T08:30:25.460Z,12.43
2019-04-02T08:32:54.133Z,8.68
2019-04-02T08:35:22.938Z,10.82
2019-04-02T08:37:51.662Z,10.05
2019-04-02T08:40:20.399Z,9.28
2019-04-02T08:42:49.069Z,8.75
2019-04-02T08:45:17.841Z,8.25
2019-04-02T08:47:46.519Z,8.80
2019-04-02T08:50:16.044Z,10.00
2019-04-02T08:52:44.845Z,9.68
2019-04-02T08:55:13.684Z,9.43
2019-04-02T08:57:53.312Z,9.28
2019-04-02T09:00:15.830Z,9.05
2019-04-02T09:02:44.613Z,10.08
2019-04-02T09:05:15.117Z,10.48
2019-04-02T09:07:44.100Z,9.70
2019-04-02T09:10:12.908Z,10.68
2019-04-02T09:12:41.663Z,9.15
2019-04-02T09:15:10.607Z,9.90
2019-04-02T09:17:39.291Z,13.30
2019-04-02T09:20:08.561Z,10.25
2019-04-02T09:22:37.255Z,8.63
2019-04-02T09:25:07.464Z,8.03
2019-04-02T09:27:36.495Z,10.45
2019-04-02T09:30:07.221Z,8.70
2019-04-02T09:32:36.865Z,7.40
2019-04-02T09:35:07.472Z,8.30
2019-04-02T09:37:36.136Z,10.08
2019-04-02T09:40:07.228Z,8.08
2019-04-02T09:42:35.894Z,9.40
2019-04-02T09:45:07.123Z,9.35
2019-04-02T09:47:36.159Z,15.38
2019-04-02T09:50:08.155Z,11.43
2019-04-02T09:52:36.865Z,8.38
2019-04-02T09:55:07.416Z,15.05
2019-04-02T09:57:36.298Z,12.68
2019-04-02T10:00:17.043Z,9.78
2019-04-02T10:02:45.916Z,9.75
2019-04-02T10:05:15.392Z,8.68
2019-04-02T10:07:44.348Z,9.40
2019-04-02T10:10:14.218Z,9.08
2019-04-02T10:12:44.079Z,8.73
2019-04-02T10:15:15.163Z,8.63
2019-04-02T10:17:43.958Z,7.97
2019-04-02T10:20:12.927Z,8.28
2019-04-02T10:22:41.643Z,9.23
2019-04-02T10:25:10.664Z,8.90
2019-04-02T10:27:39.469Z,8.75
2019-04-02T10:30:10.609Z,9.18
2019-04-02T10:32:39.484Z,9.13
2019-04-02T10:35:09.052Z,8.40
2019-04-02T10:37:37.857Z,8.43
2019-04-02T10:40:08.879Z,8.00
2019-04-02T10:42:38.180Z,11.25
2019-04-02T10:45:09.241Z,10.08
2019-04-02T10:47:38.960Z,8.58
2019-04-02T10:50:10.318Z,8.33
2019-04-02T10:52:39.554Z,10.60
2019-04-02T10:55:09.156Z,10.45
2019-04-02T10:57:38.215Z,9.00
2019-04-02T11:00:30.370Z,11.65
2019-04-02T11:02:59.328Z,11.15
2019-04-02T11:05:28.168Z,9.55
2019-04-02T11:07:56.894Z,9.00
2019-04-02T11:10:25.673Z,8.50
2019-04-02T11:12:54.386Z,9.20
2019-04-02T11:15:24.271Z,8.35
2019-04-02T11:17:53.270Z,9.90
2019-04-02T11:20:23.293Z,9.48
2019-04-02T11:22:52.440Z,9.03
2019-04-02T11:25:21.194Z,8.93
2019-04-02T11:27:49.985Z,8.48
2019-04-02T11:30:19.577Z,9.15
2019-04-02T11:32:48.453Z,9.15
2019-04-02T11:35:17.783Z,9.00
2019-04-02T11:37:48.171Z,11.55
2019-04-02T11:40:18.335Z,10.32
2019-04-02T11:42:47.196Z,11.97
2019-04-02T11:45:16.676Z,10.13
2019-04-02T11:47:45.350Z,9.03
2019-04-02T11:50:14.557Z,8.57
2019-04-02T11:52:43.241Z,9.47
2019-04-02T11:55:12.264Z,9.10
2019-04-02T11:57:41.429Z,8.87
2019-04-02T12:00:13.032Z,8.93
2019-04-02T12:02:42.026Z,9.30
2019-04-02T12:05:20.763Z,8.75
2019-04-02T12:07:43.421Z,10.03
2019-04-02T12:10:12.504Z,8.83
2019-04-02T12:12:41.257Z,9.00
2019-04-02T12:15:10.281Z,8.60
2019-04-02T12:17:39.102Z,8.47
2019-04-02T12:20:09.042Z,9.10
2019-04-02T12:22:37.920Z,9.60
2019-04-02T12:25:07.733Z,9.63
2019-04-02T12:27:36.986Z,8.83
2019-04-02T12:30:09.941Z,8.60
2019-04-02T12:32:40.102Z,9.23
2019-04-02T12:35:09.887Z,8.87
2019-04-02T12:37:38.651Z,9.23
2019-04-02T12:40:10.764Z,8.77
2019-04-02T12:42:40.698Z,8.77
2019-04-02T12:45:09.461Z,9.00
2019-04-02T12:47:38.328Z,8.97
2019-04-02T12:50:09.212Z,9.27
2019-04-02T12:52:37.896Z,8.00
2019-04-02T12:55:08.158Z,8.67
2019-04-02T12:57:36.926Z,9.00
2019-04-02T13:00:07.139Z,9.70
2019-04-02T13:02:37.713Z,7.87
2019-04-02T13:05:08.556Z,8.70
2019-04-02T13:07:37.594Z,7.93
2019-04-02T13:10:10.156Z,9.50
2019-04-02T13:12:38.861Z,8.43
2019-04-02T13:15:09.180Z,8.80
2019-04-02T13:17:37.907Z,8.47
2019-04-02T13:20:08.573Z,8.60
2019-04-02T13:22:37.339Z,8.77
2019-04-02T13:25:11.642Z,8.10
2019-04-02T13:27:40.617Z,7.93
2019-04-02T13:30:10.844Z,8.30
2019-04-02T13:32:39.543Z,8.23
2019-04-02T13:35:09.727Z,7.67
2019-04-02T13:37:38.415Z,8.53
2019-04-02T13:40:10.696Z,7.53
2019-04-02T13:42:39.340Z,8.77
2019-04-02T13:45:09.112Z,8.85
2019-04-02T13:47:37.880Z,9.13
2019-04-02T13:50:09.227Z,9.65
2019-04-02T13:52:37.966Z,9.70
2019-04-02T13:55:07.991Z,10.55
2019-04-02T13:57:37.583Z,9.15
2019-04-02T14:00:12.091Z,9.78
2019-04-02T14:02:40.777Z,9.75
2019-04-02T14:05:10.256Z,8.60
2019-04-02T14:07:38.966Z,9.93
2019-04-02T14:10:08.243Z,10.18
2019-04-02T14:12:36.941Z,9.00
2019-04-02T14:15:12.562Z,9.38
2019-04-02T14:17:40.869Z,9.75
2019-04-02T14:20:11.282Z,8.55
2019-04-02T14:22:39.967Z,10.03
2019-04-02T14:25:09.179Z,9.75
2019-04-02T14:27:37.956Z,8.98
2019-04-02T14:30:08.607Z,8.60
2019-04-02T14:32:37.416Z,8.87
2019-04-02T14:35:09.499Z,8.60
2019-04-02T14:37:38.137Z,8.60
2019-04-02T14:40:09.792Z,8.50
2019-04-02T14:42:38.531Z,8.57
2019-04-02T14:45:10.696Z,7.97
2019-04-02T14:47:39.554Z,8.57
2019-04-02T14:50:10.432Z,11.07
2019-04-02T14:52:39.496Z,8.30
2019-04-02T14:55:08.436Z,8.70
2019-04-02T14:57:47.338Z,8.97
2019-04-02T15:00:16.386Z,8.70
2019-04-02T15:02:45.201Z,8.40
2019-04-02T15:05:14.057Z,9.40
2019-04-02T15:07:42.740Z,8.23
2019-04-02T15:10:12.233Z,7.97
2019-04-02T15:12:41.164Z,8.33
2019-04-02T15:15:10.298Z,8.60
2019-04-02T15:17:40.417Z,9.00
2019-04-02T15:20:09.378Z,8.73
2019-04-02T15:22:39.400Z,9.20
2019-04-02T15:25:08.467Z,9.37
2019-04-02T15:27:49.548Z,7.97
2019-04-02T15:30:08.152Z,8.70
2019-04-02T15:32:36.854Z,7.60
2019-04-02T15:35:08.753Z,8.37
2019-04-02T15:37:37.510Z,8.13
2019-04-02T15:40:07.917Z,7.80
2019-04-02T15:42:36.619Z,8.00
2019-04-02T15:45:06.787Z,8.93
2019-04-02T15:47:36.974Z,8.27
2019-04-02T15:50:07.214Z,8.10
2019-04-02T15:52:36.221Z,8.63
2019-04-02T15:55:06.829Z,8.20
2019-04-02T15:57:35.517Z,8.63
2019-04-02T16:00:07.649Z,8.30
2019-04-02T16:02:39.466Z,9.17
2019-04-02T16:05:08.302Z,8.83
2019-04-02T16:07:36.981Z,9.13
2019-04-02T16:10:08.603Z,8.97
2019-04-02T16:12:39.219Z,8.83
2019-04-02T16:15:10.752Z,9.03
2019-04-02T16:17:39.626Z,8.77
2019-04-02T16:20:10.337Z,8.77
2019-04-02T16:22:39.166Z,8.07
2019-04-02T16:25:08.268Z,8.87
2019-04-02T16:27:37.045Z,8.47
2019-04-02T16:30:08.047Z,8.60
2019-04-02T16:32:36.737Z,7.93
2019-04-02T16:35:07.598Z,8.57
2019-04-02T16:37:36.560Z,8.33
2019-04-02T16:40:05.864Z,8.20
2019-04-02T16:42:34.589Z,8.07
2019-04-02T16:45:03.591Z,8.30
2019-04-02T16:47:32.479Z,8.70
2019-04-02T16:50:01.128Z,8.30
2019-04-02T16:52:29.798Z,9.07
2019-04-02T16:54:58.492Z,9.33
2019-04-02T16:57:30.073Z,8.73
2019-04-02T16:59:58.764Z,9.70
2019-04-02T17:02:27.536Z,9.20
2019-04-02T17:04:56.826Z,8.33
2019-04-02T17:07:26.311Z,8.00
2019-04-02T17:09:55.039Z,8.87
2019-04-02T17:12:23.725Z,8.23
2019-04-02T17:14:52.437Z,7.90
2019-04-02T17:17:21.120Z,8.17
2019-04-02T17:19:49.787Z,7.97
2019-04-02T17:22:18.784Z,8.60
2019-04-02T17:24:48.702Z,8.23
2019-04-02T17:27:17.367Z,7.60
2019-04-02T17:29:46.032Z,7.63
2019-04-02T17:32:14.697Z,8.67
2019-04-02T17:34:43.374Z,8.05
2019-04-02T17:37:12.927Z,8.30
2019-04-02T17:39:42.500Z,9.50
2019-04-02T17:42:13.252Z,8.20
2019-04-02T17:44:42.614Z,7.97
2019-04-02T17:47:12.927Z,8.23
2019-04-02T17:49:42.076Z,8.67
2019-04-02T17:52:10.833Z,8.63
2019-04-02T17:54:39.529Z,7.93
2019-04-02T17:57:08.259Z,8.80
2019-04-02T17:59:38.792Z,8.23
2019-04-02T18:02:07.742Z,8.00
2019-04-02T18:04:42.749Z,8.30
2019-04-02T18:07:07.113Z,8.17
2019-04-02T18:09:35.853Z,8.10
2019-04-02T18:12:04.551Z,8.00
2019-04-02T18:14:33.893Z,7.90
2019-04-02T18:17:02.784Z,8.80
2019-04-02T18:19:31.552Z,8.30
2019-04-02T18:22:00.282Z,7.50
2019-04-02T18:24:29.092Z,8.00
2019-04-02T18:26:58.027Z,7.80
2019-04-02T18:29:26.701Z,8.00
2019-04-02T18:31:55.405Z,8.17
2019-04-02T18:34:24.551Z,7.40
2019-04-02T18:36:54.764Z,8.03
2019-04-02T18:39:23.736Z,8.33
2019-04-02T18:41:52.505Z,8.70
2019-04-02T18:44:21.179Z,7.90
2019-04-02T18:46:50.245Z,7.73
2019-04-02T18:49:20.838Z,7.90
2019-04-02T18:51:50.440Z,8.43
2019-04-02T18:54:19.861Z,8.13
2019-04-02T18:56:48.901Z,7.30
2019-04-02T18:59:17.714Z,8.23
2019-04-02T19:01:55.124Z,7.87
2019-04-02T19:04:19.460Z,7.70
2019-04-02T19:06:50.159Z,7.73
2019-04-02T19:09:19.436Z,7.90
2019-04-02T19:11:48.418Z,8.37
2019-04-02T19:14:17.085Z,7.37
2019-04-02T19:16:45.776Z,7.60
2019-04-02T19:19:14.487Z,7.97
2019-04-02T19:21:43.156Z,7.97
2019-04-02T19:24:11.814Z,7.60
2019-04-02T19:26:41.907Z,7.43
2019-04-02T19:29:10.657Z,7.80
2019-04-02T19:31:40.610Z,8.03
2019-04-02T19:34:11.348Z,7.20
2019-04-02T19:36:40.256Z,7.03
2019-04-02T19:39:10.856Z,7.47
2019-04-02T19:41:42.014Z,7.40
2019-04-02T19:44:10.003Z,7.73
2019-04-02T19:46:38.670Z,7.30
2019-04-02T19:49:07.426Z,7.60
2019-04-02T19:51:36.113Z,7.60
2019-04-02T19:54:04.794Z,7.30
2019-04-02T19:56:33.590Z,7.70
2019-04-02T19:59:02.306Z,7.43
2019-04-02T20:01:31.018Z,7.77
2019-04-02T20:04:00.222Z,7.57
2019-04-02T20:06:32.052Z,6.80
2019-04-02T20:09:00.164Z,7.77
2019-04-02T20:11:28.834Z,7.83
2019-04-02T20:13:57.568Z,7.47
2019-04-02T20:16:26.335Z,7.77
2019-04-02T20:18:55.093Z,8.47
2019-04-02T20:21:23.863Z,7.43
2019-04-02T20:23:52.600Z,7.27
2019-04-02T20:26:21.268Z,7.40
2019-04-02T20:28:50.196Z,7.40
2019-04-02T20:31:18.899Z,7.50
2019-04-02T20:33:49.894Z,9.37
2019-04-02T20:36:17.962Z,7.97
2019-04-02T20:38:46.627Z,7.40
2019-04-02T20:41:17.220Z,6.50
2019-04-02T20:43:45.821Z,7.53
2019-04-02T20:46:14.476Z,7.77
2019-04-02T20:48:43.156Z,7.70
2019-04-02T20:51:11.824Z,7.33
2019-04-02T20:53:40.529Z,8.13
2019-04-02T20:56:09.187Z,7.57
2019-04-02T20:58:37.869Z,7.10
2019-04-02T21:01:06.552Z,8.30
2019-04-02T21:03:35.214Z,7.10
2019-04-02T21:06:03.903Z,6.93
2019-04-02T21:08:32.918Z,7.30
2019-04-02T21:11:10.398Z,6.87
2019-04-02T21:13:32.142Z,6.90
2019-04-02T21:16:00.822Z,6.80
2019-04-02T21:18:34.488Z,6.87
2019-04-02T21:21:04.851Z,7.33
2019-04-02T21:23:33.536Z,7.50
2019-04-02T21:26:02.196Z,7.20
2019-04-02T21:28:30.937Z,7.40
2019-04-02T21:30:59.601Z,6.97
2019-04-02T21:33:34.222Z,7.57
2019-04-02T21:35:58.682Z,6.90
2019-04-02T21:38:27.361Z,7.27
2019-04-02T21:40:56.036Z,7.50
2019-04-02T21:43:24.723Z,7.00
2019-04-02T21:45:53.386Z,7.60
2019-04-02T21:48:22.134Z,7.27
2019-04-02T21:50:50.909Z,6.90
2019-04-02T21:53:19.590Z,7.00
2019-04-02T21:55:49.819Z,7.30
2019-04-02T21:58:18.500Z,6.70
2019-04-02T22:00:51.692Z,6.93
2019-04-02T22:03:20.367Z,7.40
2019-04-02T22:05:49.096Z,7.07
2019-04-02T22:08:18.153Z,7.17
2019-04-02T22:10:46.837Z,7.23
2019-04-02T22:13:15.513Z,6.10
2019-04-02T22:15:44.313Z,6.50
2019-04-02T22:18:13.984Z,6.60
2019-04-02T22:20:43.771Z,6.87
2019-04-02T22:23:13.510Z,6.20
2019-04-02T22:25:43.411Z,6.80
2019-04-02T22:28:15.167Z,6.20
2019-04-02T22:30:43.269Z,6.90
2019-04-02T22:33:17.774Z,5.97
2019-04-02T22:35:42.408Z,5.80
2019-04-02T22:38:11.084Z,6.50
2019-04-02T22:40:39.767Z,6.40
2019-04-02T22:43:08.520Z,5.67
2019-04-02T22:45:37.175Z,5.73
2019-04-02T22:48:05.898Z,6.50
2019-04-02T22:50:34.574Z,6.10
2019-04-02T22:53:03.257Z,6.27
2019-04-02T22:55:32.676Z,6.30
2019-04-02T22:58:02.490Z,5.87
2019-04-02T23:00:32.568Z,6.37
2019-04-02T23:03:02.529Z,5.63
2019-04-02T23:05:32.733Z,6.17
2019-04-02T23:08:03.921Z,6.50
2019-04-02T23:10:33.494Z,6.13
2019-04-02T23:13:03.508Z,7.00
2019-04-02T23:15:32.758Z,6.40
2019-04-02T23:18:01.418Z,5.67
2019-04-02T23:20:30.114Z,5.80
2019-04-02T23:22:59.071Z,6.03
2019-04-02T23:25:27.923Z,5.93
2019-04-02T23:27:56.610Z,5.87
2019-04-02T23:30:25.407Z,5.53
2019-04-02T23:32:54.751Z,6.37
2019-04-02T23:35:24.043Z,5.67
2019-04-02T23:37:52.708Z,5.80
2019-04-02T23:40:21.528Z,5.70
2019-04-02T23:42:50.194Z,5.33
2019-04-02T23:45:18.879Z,5.40
2019-04-02T23:47:47.564Z,5.47
2019-04-02T23:50:16.408Z,5.47
2019-04-02T23:52:45.132Z,5.50
2019-04-02T23:55:13.785Z,7.00
2019-04-02T23:57:42.453Z,5.90
